createdAt,value
2024-01-19T00:00:36.850Z,6.15
2024-01-19T00:03:40.109Z,6.08
2024-01-19T00:06:42.732Z,6.10
2024-01-19T00:09:45.834Z,5.99
2024-01-19T00:12:48.677Z,5.91
2024-01-19T00:15:53.486Z,5.94
2024-01-19T00:18:56.063Z,5.84
2024-01-19T00:21:59.053Z,5.84
2024-01-19T00:25:01.638Z,5.86
2024-01-19T00:28:04.794Z,5.85
2024-01-19T00:31:07.852Z,5.78
2024-01-19T00:34:10.769Z,5.65
2024-01-19T00:37:13.411Z,5.56
2024-01-19T00:40:16.856Z,5.47
2024-01-19T00:43:19.518Z,5.21
2024-01-19T00:46:23.088Z,5.15
2024-01-19T00:49:25.991Z,4.99
2024-01-19T00:52:28.868Z,4.82
2024-01-19T00:55:31.569Z,4.69
2024-01-19T00:58:34.454Z,4.61
2024-01-19T01:01:37.122Z,4.47
2024-01-19T01:04:40.199Z,4.40
2024-01-19T01:07:42.822Z,4.27
2024-01-19T01:10:46.557Z,4.16
2024-01-19T01:13:49.250Z,3.90
2024-01-19T01:16:52.080Z,3.61
2024-01-19T01:19:54.721Z,3.32
2024-01-19T01:22:57.647Z,3.08
2024-01-19T01:26:00.286Z,3.03
2024-01-19T01:29:03.153Z,2.91
2024-01-19T01:32:05.874Z,2.79
2024-01-19T01:35:09.123Z,2.74
2024-01-19T01:38:11.814Z,2.74
2024-01-19T01:41:14.805Z,2.66
2024-01-19T01:44:17.540Z,2.59
2024-01-19T01:47:20.531Z,2.45
2024-01-19T01:50:24.416Z,2.34
2024-01-19T01:53:27.620Z,2.26
2024-01-19T01:56:30.759Z,2.25
2024-01-19T01:59:34.422Z,2.13
2024-01-19T02:02:38.314Z,2.11
2024-01-19T02:05:41.517Z,2.03
2024-01-19T02:08:44.683Z,2.05
2024-01-19T02:11:47.349Z,2.00
2024-01-19T02:14:50.422Z,2.00
2024-01-19T02:17:54.271Z,1.83
2024-01-19T02:20:57.505Z,1.89
2024-01-19T02:24:04.856Z,1.91
2024-01-19T02:27:10.177Z,1.82
2024-01-19T02:30:13.350Z,1.81
2024-01-19T02:33:16.448Z,1.83
2024-01-19T02:36:19.265Z,1.87
2024-01-19T02:39:22.230Z,1.69
2024-01-19T02:42:24.927Z,1.79
2024-01-19T02:45:27.785Z,1.79
2024-01-19T02:48:30.754Z,1.71
2024-01-19T02:51:33.884Z,1.74
2024-01-19T02:54:36.498Z,1.60
2024-01-19T02:57:39.515Z,1.67
2024-01-19T03:00:42.177Z,1.70
2024-01-19T03:03:45.038Z,1.65
2024-01-19T03:06:47.709Z,1.67
2024-01-19T03:09:50.765Z,1.64
2024-01-19T03:12:53.362Z,1.69
2024-01-19T03:15:59.890Z,1.68
2024-01-19T03:19:06.364Z,1.63
2024-01-19T03:22:09.423Z,1.66
2024-01-19T03:25:12.138Z,1.69
2024-01-19T03:28:15.153Z,1.70
2024-01-19T03:31:17.809Z,1.70
2024-01-19T03:34:20.879Z,1.63
2024-01-19T03:37:23.521Z,1.64
2024-01-19T03:40:26.521Z,1.60
2024-01-19T03:43:29.079Z,1.60
2024-01-19T03:46:31.949Z,1.53
2024-01-19T03:49:34.584Z,1.61
2024-01-19T03:52:38.799Z,1.66
2024-01-19T03:55:41.472Z,1.59
2024-01-19T03:58:44.381Z,1.53
2024-01-19T04:01:47.062Z,1.50
2024-01-19T04:04:50.025Z,1.53
2024-01-19T04:07:52.700Z,1.49
2024-01-19T04:10:55.763Z,1.46
2024-01-19T04:13:58.430Z,1.54
2024-01-19T04:17:01.314Z,1.52
2024-01-19T04:20:06.074Z,1.50
2024-01-19T04:23:09.093Z,1.42
2024-01-19T04:26:12.214Z,1.45
2024-01-19T04:29:16.255Z,1.44
2024-01-19T04:32:18.942Z,1.44
2024-01-19T04:35:21.871Z,1.46
2024-01-19T04:38:24.488Z,1.43
2024-01-19T04:41:27.467Z,1.56
2024-01-19T04:44:30.137Z,1.47
2024-01-19T04:47:33.084Z,1.41
2024-01-19T04:50:35.856Z,1.45
2024-01-19T04:53:38.922Z,1.47
2024-01-19T04:56:43.398Z,1.52
2024-01-19T04:59:47.495Z,1.52
2024-01-19T05:02:50.746Z,1.56
2024-01-19T05:05:54.020Z,1.60
2024-01-19T05:08:57.354Z,1.53
2024-01-19T05:12:00.513Z,1.51
2024-01-19T05:15:03.544Z,1.52
2024-01-19T05:18:06.653Z,1.53
2024-01-19T05:21:09.523Z,1.48
2024-01-19T05:24:12.462Z,1.44
2024-01-19T05:27:15.191Z,1.47
2024-01-19T05:30:18.433Z,1.52
2024-01-19T05:33:21.236Z,1.58
2024-01-19T05:36:24.782Z,1.55
2024-01-19T05:39:27.421Z,1.62
2024-01-19T05:42:30.461Z,1.58
2024-01-19T05:45:33.019Z,1.50
2024-01-19T05:48:36.003Z,1.56
2024-01-19T05:51:38.752Z,1.51
2024-01-19T05:54:41.710Z,1.53
2024-01-19T05:57:44.411Z,1.50
2024-01-19T06:00:47.534Z,1.57
2024-01-19T06:03:50.736Z,1.50
2024-01-19T06:06:53.522Z,1.55
2024-01-19T06:09:56.459Z,1.60
2024-01-19T06:12:59.052Z,1.60
2024-01-19T06:16:02.317Z,1.62
2024-01-19T06:19:05.014Z,1.62
2024-01-19T06:22:08.073Z,1.56
2024-01-19T06:25:11.176Z,1.57
2024-01-19T06:28:14.189Z,1.58
2024-01-19T06:31:16.765Z,1.61
2024-01-19T06:34:19.964Z,1.60
2024-01-19T06:37:22.748Z,1.58
2024-01-19T06:40:25.739Z,1.67
2024-01-19T06:43:28.466Z,1.67
2024-01-19T06:46:31.437Z,1.65
2024-01-19T06:49:34.180Z,1.72
2024-01-19T06:52:37.112Z,1.75
2024-01-19T06:55:39.653Z,1.82
2024-01-19T06:58:43.794Z,1.81
2024-01-19T07:01:46.448Z,1.86
2024-01-19T07:04:50.893Z,1.92
2024-01-19T07:07:56.488Z,1.99
2024-01-19T07:11:00.135Z,1.93
2024-01-19T07:14:03.096Z,1.93
2024-01-19T07:17:06.118Z,1.94
2024-01-19T07:20:09.412Z,2.04
2024-01-19T07:23:12.624Z,1.97
2024-01-19T07:26:19.205Z,1.98
2024-01-19T07:29:22.133Z,1.98
2024-01-19T07:32:26.326Z,1.86
2024-01-19T07:35:29.528Z,1.96
2024-01-19T07:38:32.306Z,1.93
2024-01-19T07:41:35.325Z,1.87
2024-01-19T07:44:37.915Z,1.82
2024-01-19T07:47:40.899Z,1.87
2024-01-19T07:50:43.555Z,1.92
2024-01-19T07:53:46.696Z,1.76
2024-01-19T07:56:49.501Z,1.70
2024-01-19T07:59:52.585Z,1.57
2024-01-19T08:02:55.853Z,1.45
2024-01-19T08:05:59.264Z,1.47
2024-01-19T08:09:02.145Z,1.42
2024-01-19T08:12:07.326Z,1.46
2024-01-19T08:15:10.718Z,1.52
2024-01-19T08:18:14.040Z,1.54
2024-01-19T08:21:17.614Z,1.37
2024-01-19T08:24:20.785Z,1.41
2024-01-19T08:27:23.412Z,1.57
2024-01-19T08:30:26.338Z,1.63
2024-01-19T08:33:29.297Z,1.60
2024-01-19T08:36:32.733Z,1.55
2024-01-19T08:39:36.008Z,1.61
2024-01-19T08:42:39.530Z,1.73
2024-01-19T08:45:42.238Z,1.82
2024-01-19T08:48:47.061Z,2.02
2024-01-19T08:51:51.915Z,2.16
2024-01-19T08:54:54.911Z,2.20
2024-01-19T08:57:57.743Z,2.05
2024-01-19T09:01:03.107Z,2.01
2024-01-19T09:04:26.121Z,1.91
2024-01-19T09:07:29.326Z,1.77
2024-01-19T09:10:32.089Z,1.62
2024-01-19T09:13:35.025Z,1.44
2024-01-19T09:16:37.815Z,1.36
2024-01-19T09:19:40.851Z,1.31
2024-01-19T09:22:44.216Z,1.31
2024-01-19T09:25:47.119Z,1.19
2024-01-19T09:28:50.430Z,1.25
2024-01-19T09:31:53.271Z,1.31
2024-01-19T09:34:55.923Z,1.23
2024-01-19T09:37:58.961Z,1.23
2024-01-19T09:41:22.230Z,1.28
2024-01-19T09:44:35.010Z,1.20
2024-01-19T09:47:56.664Z,1.10
2024-01-19T09:51:05.753Z,1.04
2024-01-19T09:54:10.335Z,0.82
2024-01-19T09:57:13.319Z,0.80
2024-01-19T10:00:18.881Z,0.55
2024-01-19T10:03:23.793Z,0.31
2024-01-19T10:06:26.862Z,0.20
2024-01-19T10:09:30.510Z,0.19
2024-01-19T10:12:35.887Z,0.21
2024-01-19T10:15:39.161Z,0.26
2024-01-19T10:18:43.391Z,0.36
2024-01-19T10:21:46.620Z,0.39
2024-01-19T10:25:04.737Z,0.37
2024-01-19T10:28:07.861Z,0.49
2024-01-19T10:31:28.576Z,0.43
2024-01-19T10:34:31.585Z,0.44
2024-01-19T10:37:34.649Z,0.40
2024-01-19T10:40:37.964Z,0.48
2024-01-19T10:43:40.730Z,0.34
2024-01-19T10:46:44.510Z,0.41
2024-01-19T10:49:47.220Z,0.48
2024-01-19T10:52:54.640Z,0.38
2024-01-19T10:55:57.245Z,0.25
2024-01-19T10:59:14.761Z,0.18
2024-01-19T11:02:18.375Z,0.32
2024-01-19T11:05:21.653Z,0.33
2024-01-19T11:08:24.391Z,0.30
2024-01-19T11:11:35.160Z,0.38
2024-01-19T11:14:41.101Z,0.40
2024-01-19T11:17:44.348Z,0.40
2024-01-19T11:20:49.094Z,0.38
2024-01-19T11:23:53.602Z,0.40
2024-01-19T11:27:18.269Z,0.49
2024-01-19T11:30:33.323Z,0.53
2024-01-19T11:33:36.788Z,0.38
2024-01-19T11:36:49.501Z,0.42
2024-01-19T11:39:52.155Z,0.42
2024-01-19T11:42:55.792Z,0.38
2024-01-19T11:45:58.468Z,0.43
2024-01-19T11:49:03.718Z,0.42
2024-01-19T11:52:26.385Z,0.43
2024-01-19T11:55:29.373Z,0.45
2024-01-19T11:58:42.132Z,0.48
2024-01-19T12:01:45.121Z,0.44
2024-01-19T12:04:53.422Z,0.51
2024-01-19T12:08:02.637Z,0.44
2024-01-19T12:11:07.930Z,0.60
2024-01-19T12:14:14.222Z,0.63
2024-01-19T12:17:17.239Z,0.69
2024-01-19T12:20:20.605Z,0.65
2024-01-19T12:23:25.372Z,0.57
2024-01-19T12:26:28.451Z,0.54
2024-01-19T12:29:37.476Z,0.55
2024-01-19T12:32:40.918Z,0.50
2024-01-19T12:35:44.269Z,0.47
2024-01-19T12:38:47.144Z,0.47
2024-01-19T12:42:08.005Z,0.50
2024-01-19T12:45:14.635Z,0.51
2024-01-19T12:48:25.653Z,0.71
2024-01-19T12:51:32.355Z,0.72
2024-01-19T12:54:45.401Z,0.78
2024-01-19T12:57:51.137Z,0.98
2024-01-19T13:00:54.360Z,0.93
2024-01-19T13:03:58.038Z,0.87
2024-01-19T13:07:01.128Z,0.82
2024-01-19T13:10:04.715Z,0.94
2024-01-19T13:13:19.972Z,0.97
2024-01-19T13:16:22.533Z,0.95
2024-01-19T13:19:25.551Z,0.86
2024-01-19T13:22:28.471Z,0.80
2024-01-19T13:25:31.511Z,0.84
2024-01-19T13:28:34.320Z,0.71
2024-01-19T13:31:37.495Z,0.73
2024-01-19T13:34:40.246Z,0.79
2024-01-19T13:37:45.062Z,0.89
2024-01-19T13:40:47.765Z,0.89
2024-01-19T13:43:50.679Z,0.95
2024-01-19T13:46:53.408Z,0.91
2024-01-19T13:50:02.253Z,0.97
2024-01-19T13:53:05.790Z,1.04
2024-01-19T13:56:09.896Z,1.12
2024-01-19T13:59:12.617Z,1.20
2024-01-19T14:02:18.941Z,1.32
2024-01-19T14:05:21.990Z,1.37
2024-01-19T14:08:25.570Z,1.36
2024-01-19T14:11:28.761Z,1.23
2024-01-19T14:14:32.943Z,1.08
2024-01-19T14:17:35.950Z,1.11
2024-01-19T14:20:38.615Z,1.14
2024-01-19T14:23:41.562Z,1.19
2024-01-19T14:26:44.557Z,1.33
2024-01-19T14:29:49.218Z,1.39
2024-01-19T14:32:54.770Z,1.41
2024-01-19T14:35:57.861Z,1.41
2024-01-19T14:39:00.508Z,1.33
2024-01-19T14:42:03.731Z,1.33
2024-01-19T14:45:08.427Z,1.30
2024-01-19T14:48:13.130Z,1.29
2024-01-19T14:51:16.611Z,1.22
2024-01-19T14:54:20.095Z,1.17
2024-01-19T14:57:23.427Z,1.15
2024-01-19T15:00:26.317Z,1.12
2024-01-19T15:03:28.958Z,1.11
2024-01-19T15:06:32.018Z,1.05
2024-01-19T15:09:34.730Z,1.03
2024-01-19T15:12:37.902Z,1.00
2024-01-19T15:15:40.437Z,0.86
2024-01-19T15:18:43.656Z,0.87
2024-01-19T15:21:47.809Z,0.80
2024-01-19T15:24:51.826Z,0.83
2024-01-19T15:27:55.472Z,0.83
2024-01-19T15:30:59.417Z,0.82
2024-01-19T15:34:02.929Z,0.84
2024-01-19T15:37:08.672Z,0.77
2024-01-19T15:40:16.814Z,0.85
2024-01-19T15:43:20.657Z,0.81
2024-01-19T15:46:25.780Z,0.78
2024-01-19T15:49:29.910Z,0.76
2024-01-19T15:52:33.547Z,0.77
2024-01-19T15:55:37.541Z,0.79
2024-01-19T15:58:40.509Z,0.73
2024-01-19T16:01:44.393Z,0.76
2024-01-19T16:04:47.633Z,0.78
2024-01-19T16:07:50.373Z,0.79
2024-01-19T16:10:53.607Z,0.84
2024-01-19T16:13:56.246Z,0.91
2024-01-19T16:17:01.073Z,0.87
2024-01-19T16:20:04.589Z,0.86
2024-01-19T16:23:07.782Z,0.89
2024-01-19T16:26:10.630Z,0.86
2024-01-19T16:29:13.539Z,0.85
2024-01-19T16:32:16.310Z,0.84
2024-01-19T16:35:27.459Z,0.75
2024-01-19T16:38:34.932Z,0.84
2024-01-19T16:41:42.822Z,0.80
2024-01-19T16:44:46.250Z,0.81
2024-01-19T16:47:49.958Z,0.77
2024-01-19T16:50:53.965Z,0.70
2024-01-19T16:53:57.670Z,0.71
2024-01-19T16:57:03.561Z,0.72
2024-01-19T17:00:07.924Z,0.71
2024-01-19T17:03:13.628Z,0.64
2024-01-19T17:06:17.552Z,0.71
2024-01-19T17:09:24.448Z,0.67
2024-01-19T17:12:27.952Z,0.60
2024-01-19T17:15:31.191Z,0.58
2024-01-19T17:18:34.362Z,0.53
2024-01-19T17:21:40.851Z,0.51
2024-01-19T17:24:44.121Z,0.50
2024-01-19T17:27:46.819Z,0.47
2024-01-19T17:30:50.101Z,0.48
2024-01-19T17:34:05.264Z,0.46
2024-01-19T17:37:12.449Z,0.42
2024-01-19T17:40:15.206Z,0.57
2024-01-19T17:43:19.088Z,0.56
2024-01-19T17:46:22.292Z,0.61
2024-01-19T17:49:25.406Z,0.72
2024-01-19T17:52:40.647Z,0.72
2024-01-19T17:55:43.841Z,0.68
2024-01-19T17:58:46.559Z,0.67
2024-01-19T18:01:49.537Z,0.67
2024-01-19T18:04:52.928Z,0.74
2024-01-19T18:07:55.826Z,0.72
2024-01-19T18:10:58.958Z,0.74
2024-01-19T18:14:02.664Z,0.77
2024-01-19T18:17:05.862Z,0.76
2024-01-19T18:20:09.869Z,0.74
2024-01-19T18:23:13.034Z,0.70
2024-01-19T18:26:16.082Z,0.70
2024-01-19T18:29:20.966Z,0.64
2024-01-19T18:32:23.876Z,0.62
2024-01-19T18:35:27.013Z,0.54
2024-01-19T18:38:29.665Z,0.39
2024-01-19T18:41:32.598Z,0.31
2024-01-19T18:44:35.884Z,0.21
2024-01-19T18:47:41.505Z,0.18
2024-01-19T18:50:44.256Z,0.11
2024-01-19T18:53:47.780Z,-0.02
2024-01-19T18:56:50.788Z,-0.03
2024-01-19T18:59:54.793Z,-0.14
2024-01-19T19:02:58.201Z,-0.22
2024-01-19T19:06:01.449Z,-0.26
2024-01-19T19:09:04.764Z,-0.27
2024-01-19T19:12:08.072Z,-0.27
2024-01-19T19:15:10.808Z,-0.25
2024-01-19T19:18:13.984Z,-0.26
2024-01-19T19:21:21.351Z,-0.37
2024-01-19T19:24:25.804Z,-0.38
2024-01-19T19:27:28.500Z,-0.48
2024-01-19T19:30:33.247Z,-0.51
2024-01-19T19:33:37.470Z,-0.60
2024-01-19T19:36:40.576Z,-0.73
2024-01-19T19:39:43.331Z,-0.78
2024-01-19T19:42:46.523Z,-0.86
2024-01-19T19:45:51.870Z,-0.84
2024-01-19T19:48:58.120Z,-0.75
2024-01-19T19:52:01.646Z,-0.80
2024-01-19T19:55:05.125Z,-0.90
2024-01-19T19:58:07.792Z,-0.91
2024-01-19T20:01:14.000Z,-0.87
2024-01-19T20:04:17.060Z,-0.89
2024-01-19T20:07:19.682Z,-1.00
2024-01-19T20:10:22.876Z,-0.95
2024-01-19T20:13:25.622Z,-0.91
2024-01-19T20:16:28.627Z,-0.89
2024-01-19T20:19:31.392Z,-0.84
2024-01-19T20:22:42.549Z,-0.87
2024-01-19T20:25:45.370Z,-0.95
2024-01-19T20:28:48.592Z,-0.88
2024-01-19T20:31:51.776Z,-0.88
2024-01-19T20:34:54.947Z,-0.90
2024-01-19T20:37:58.045Z,-0.93
2024-01-19T20:41:01.281Z,-1.02
2024-01-19T20:44:04.414Z,-1.06
2024-01-19T20:47:07.436Z,-1.10
2024-01-19T20:50:10.435Z,-1.20
2024-01-19T20:53:13.583Z,-1.26
2024-01-19T20:56:16.742Z,-1.32
2024-01-19T20:59:20.239Z,-1.39
2024-01-19T21:02:23.078Z,-1.47
2024-01-19T21:05:26.519Z,-1.45
2024-01-19T21:08:30.029Z,-1.38
2024-01-19T21:11:33.196Z,-1.38
2024-01-19T21:14:37.149Z,-1.27
2024-01-19T21:17:41.162Z,-1.19
2024-01-19T21:20:44.079Z,-1.10
2024-01-19T21:23:48.388Z,-1.08
2024-01-19T21:26:51.031Z,-0.91
2024-01-19T21:29:55.019Z,-0.93
2024-01-19T21:32:57.959Z,-0.90
2024-01-19T21:36:00.888Z,-0.86
2024-01-19T21:39:03.787Z,-0.91
2024-01-19T21:42:07.175Z,-0.89
2024-01-19T21:45:09.935Z,-0.92
2024-01-19T21:48:13.555Z,-0.85
2024-01-19T21:51:17.373Z,-0.85
2024-01-19T21:54:20.434Z,-0.83
2024-01-19T21:57:27.462Z,-0.76
2024-01-19T22:00:30.472Z,-0.80
2024-01-19T22:03:34.586Z,-0.71
2024-01-19T22:06:37.444Z,-0.64
2024-01-19T22:09:43.014Z,-0.62
2024-01-19T22:12:47.030Z,-0.64
2024-01-19T22:15:50.012Z,-0.70
2024-01-19T22:18:52.821Z,-0.73
2024-01-19T22:21:55.754Z,-0.86
2024-01-19T22:24:58.472Z,-0.95
2024-01-19T22:28:01.360Z,-0.95
2024-01-19T22:31:05.059Z,-0.97
2024-01-19T22:34:12.121Z,-0.94
2024-01-19T22:37:16.613Z,-0.89
2024-01-19T22:40:19.966Z,-0.95
2024-01-19T22:43:22.780Z,-0.97
2024-01-19T22:46:26.642Z,-1.04
2024-01-19T22:49:30.195Z,-1.09
2024-01-19T22:52:33.294Z,-1.24
2024-01-19T22:55:36.444Z,-1.32
2024-01-19T22:58:39.535Z,-1.34
2024-01-19T23:01:45.058Z,-1.30
2024-01-19T23:04:48.204Z,-1.23
2024-01-19T23:07:51.901Z,-1.26
2024-01-19T23:10:54.903Z,-1.22
2024-01-19T23:13:57.594Z,-1.26
2024-01-19T23:17:00.678Z,-1.35
2024-01-19T23:20:04.962Z,-1.36
2024-01-19T23:23:08.103Z,-1.34
2024-01-19T23:26:11.153Z,-1.27
2024-01-19T23:29:14.285Z,-1.27
2024-01-19T23:32:17.582Z,-1.32
2024-01-19T23:35:20.936Z,-1.34
2024-01-19T23:38:23.734Z,-1.40
2024-01-19T23:41:26.935Z,-1.43
2024-01-19T23:44:29.644Z,-1.48
2024-01-19T23:47:32.562Z,-1.43
2024-01-19T23:50:38.270Z,-1.45
2024-01-19T23:53:41.075Z,-1.58
2024-01-19T23:56:44.047Z,-1.63
2024-01-19T23:59:47.229Z,-1.68
